Time;durP1;ratioP1;P1;durP2;ratioP2;P2;SDS_P1;SDS_P2;PMS_P1;PMS_P2;Temp;Humidity;BMP_temperature;BMP_pressure;BME280_temperature;BME280_humidity;BME280_pressure;Samples;Min_cycle;Max_cycle;Signal;HPM_P1;HPM_P2
2022/03/22 00:02:24;;;;;;;53.57;36.73;;;;;;;10.25;48.99;103157.41;5240808;28;20473;-51
2022/03/22 00:04:57;;;;;;;50.63;35.30;;;;;;;10.22;48.77;103160.22;5232129;28;20761;-49
2022/03/22 00:07:30;;;;;;;54.15;36.33;;;;;;;10.20;49.14;103152.41;5229060;27;20412;-49
2022/03/22 00:10:04;;;;;;;49.17;34.22;;;;;;;10.19;49.10;103152.50;5241514;28;20889;-51
2022/03/22 00:12:37;;;;;;;53.05;34.58;;;;;;;10.17;49.26;103149.94;5232942;28;20431;-51
2022/03/22 00:15:12;;;;;;;52.83;35.22;;;;;;;10.14;49.18;103156.25;5239739;28;20770;-51
2022/03/22 00:17:45;;;;;;;52.88;36.05;;;;;;;10.11;49.23;103156.44;5228187;28;20392;-50
2022/03/22 00:20:18;;;;;;;50.97;35.70;;;;;;;10.09;49.34;103153.03;5230268;28;20984;-51
2022/03/22 00:22:51;;;;;;;54.80;36.08;;;;;;;10.04;49.54;103149.81;5229913;28;20809;-49
2022/03/22 00:25:23;;;;;;;53.75;37.38;;;;;;;10.03;49.48;103153.38;5235273;28;20869;-50
2022/03/22 00:27:57;;;;;;;58.53;38.40;;;;;;;10.02;49.83;103151.69;5231440;28;20415;-50
2022/03/22 00:30:33;;;;;;;60.93;39.00;;;;;;;9.99;49.90;103149.22;5228086;28;20408;-49
2022/03/22 00:33:08;;;;;;;57.07;39.07;;;;;;;9.97;49.80;103147.63;5237667;28;20502;-49
2022/03/22 00:35:42;;;;;;;58.20;38.30;;;;;;;9.93;50.14;103157.50;5226703;28;20427;-49
2022/03/22 00:38:18;;;;;;;57.20;39.00;;;;;;;9.92;50.29;103155.81;5247649;28;20503;-49
2022/03/22 00:40:51;;;;;;;60.65;40.35;;;;;;;9.90;50.29;103153.25;5235797;28;20418;-49
2022/03/22 00:43:24;;;;;;;59.65;38.13;;;;;;;9.91;50.38;103162.03;5236764;28;20491;-50
2022/03/22 00:45:58;;;;;;;63.60;38.85;;;;;;;9.86;50.49;103145.63;5237357;28;20421;-49
2022/03/22 00:48:31;;;;;;;55.33;39.58;;;;;;;9.86;50.58;103156.16;5234070;27;20422;-55
2022/03/22 00:51:04;;;;;;;53.00;36.23;;;;;;;9.85;50.70;103154.47;5235065;28;20416;-48
2022/03/22 00:53:36;;;;;;;58.17;40.13;;;;;;;9.83;50.74;103151.06;5239672;28;20415;-51
2022/03/22 00:56:10;;;;;;;60.60;39.33;;;;;;;9.81;50.70;103160.84;5232702;28;20802;-51
2022/03/22 00:58:43;;;;;;;57.20;37.88;;;;;;;9.78;50.99;103158.38;5239056;28;20425;-48
2022/03/22 01:01:17;;;;;;;57.03;37.50;;;;;;;9.74;50.83;103151.59;5238265;28;20760;-50
2022/03/22 01:03:50;;;;;;;59.28;40.30;;;;;;;9.65;51.05;103150.31;5233484;28;20911;-51
2022/03/22 01:06:23;;;;;;;59.85;38.63;;;;;;;9.67;51.20;103162.50;5240189;28;20409;-49
2022/03/22 01:08:56;;;;;;;64.17;40.70;;;;;;;9.64;51.22;103152.13;5226009;27;20521;-48
2022/03/22 01:11:28;;;;;;;62.63;38.35;;;;;;;9.62;51.22;103151.34;5233715;28;20404;-52
2022/03/22 01:14:01;;;;;;;61.85;42.63;;;;;;;9.58;51.36;103147.19;5237451;28;20872;-54
2022/03/22 01:16:35;;;;;;;67.05;41.63;;;;;;;9.51;51.55;103143.19;5231333;28;20414;-48
2022/03/22 01:19:08;;;;;;;66.13;42.53;;;;;;;9.55;51.59;103155.28;5237955;28;20425;-49
2022/03/22 01:21:40;;;;;;;67.78;42.22;;;;;;;9.53;51.55;103153.66;5238546;28;20487;-48
2022/03/22 01:24:13;;;;;;;57.17;39.45;;;;;;;9.52;51.62;103150.16;5238940;28;20626;-49
2022/03/22 01:26:46;;;;;;;65.18;42.70;;;;;;;9.50;51.83;103149.41;5227094;28;20931;-51
2022/03/22 01:29:19;;;;;;;66.70;43.65;;;;;;;9.44;51.70;103145.31;5234286;28;20414;-53
2022/03/22 01:31:53;;;;;;;65.85;42.70;;;;;;;9.42;52.04;103146.34;5236794;28;20429;-48
2022/03/22 01:34:25;;;;;;;71.07;43.80;;;;;;;9.41;52.00;103147.28;5243919;28;20409;-48
2022/03/22 01:36:58;;;;;;;66.82;42.83;;;;;;;9.39;51.85;103146.53;5243048;28;20422;-50
2022/03/22 01:39:30;;;;;;;66.75;43.67;;;;;;;9.36;52.11;103147.53;5237465;28;20422;-50
2022/03/22 01:42:03;;;;;;;70.65;45.70;;;;;;;9.29;52.16;103137.41;5238568;28;20426;-50
2022/03/22 01:44:36;;;;;;;68.65;44.20;;;;;;;9.32;52.21;103151.28;5243609;28;20421;-48
2022/03/22 01:47:12;;;;;;;63.17;43.05;;;;;;;9.30;52.32;103147.88;5243299;28;20771;-51
2022/03/22 01:49:44;;;;;;;68.30;44.20;;;;;;;9.30;52.63;103144.41;5239230;28;20416;-51
2022/03/22 01:52:19;;;;;;;64.57;43.13;;;;;;;9.28;52.47;103138.34;5230763;28;20894;-50
2022/03/22 01:54:55;;;;;;;64.22;43.40;;;;;;;9.24;52.31;103154.34;5235177;28;20897;-47
2022/03/22 01:57:30;;;;;;;63.97;41.90;;;;;;;9.20;52.74;103147.53;5234488;28;20423;-49
2022/03/22 02:00:05;;;;;;;69.78;44.75;;;;;;;9.17;53.04;103138.97;5240422;28;20416;-48
2022/03/22 02:08:24;;;;;;;73.28;45.80;;;;;;;9.01;52.99;103136.28;5237731;28;20935;-54
2022/03/22 02:10:58;;;;;;;73.43;46.67;;;;;;;9.00;53.07;103142.50;5229319;28;20734;-50
2022/03/22 02:13:32;;;;;;;71.60;44.60;;;;;;;8.97;53.28;103135.59;5239663;28;20405;-54
2022/03/22 02:16:05;;;;;;;76.10;47.05;;;;;;;8.98;53.26;103133.81;5247109;27;20426;-54
2022/03/22 02:18:41;;;;;;;71.25;45.95;;;;;;;8.97;53.44;103132.13;5247003;28;20406;-53
2022/03/22 02:21:16;;;;;;;72.43;47.60;;;;;;;8.93;53.38;103133.22;5233842;28;20500;-52
2022/03/22 02:23:53;;;;;;;74.32;46.65;;;;;;;8.94;53.76;103133.13;5238643;28;20766;-54
2022/03/22 02:26:27;;;;;;;69.68;46.47;;;;;;;8.76;53.55;103113.91;5232376;28;20421;-55
2022/03/22 02:29:01;;;;;;;76.35;49.35;;;;;;;8.87;53.58;103134.41;5246769;28;20477;-50
2022/03/22 02:31:34;;;;;;;76.47;50.50;;;;;;;8.82;53.83;103125.03;5237617;28;20882;-49
2022/03/22 02:34:06;;;;;;;74.68;49.97;;;;;;;8.84;53.98;103136.34;5238366;28;20430;-48
2022/03/22 02:36:39;;;;;;;77.90;51.13;;;;;;;8.77;53.77;103123.50;5241958;28;20782;-51
2022/03/22 02:39:14;;;;;;;69.32;45.63;;;;;;;8.81;53.91;103128.59;5231926;28;20414;-48
2022/03/22 02:41:50;;;;;;;79.38;49.38;;;;;;;8.78;53.96;103127.84;5241128;28;20807;-50
2022/03/22 02:44:23;;;;;;;81.10;52.25;;;;;;;8.71;54.17;103123.00;5230857;28;20404;-49
2022/03/22 02:46:55;;;;;;;77.32;50.22;;;;;;;8.76;54.20;103128.84;5234891;28;20417;-50
2022/03/22 02:49:30;;;;;;;80.03;49.65;;;;;;;8.51;54.44;103095.91;5233286;28;20486;-48
2022/03/22 02:52:02;;;;;;;86.03;54.42;;;;;;;8.11;54.49;103039.19;5234957;28;20984;-49
2022/03/22 02:54:36;;;;;;;88.07;54.38;;;;;;;8.70;54.56;103134.44;5236706;28;20432;-52
2022/03/22 02:57:09;;;;;;;83.20;54.53;;;;;;;8.68;54.62;103134.53;5236146;28;20429;-53
2022/03/22 02:59:41;;;;;;;84.00;55.92;;;;;;;8.67;54.75;103132.84;5245299;28;20762;-53
2022/03/22 03:02:14;;;;;;;90.03;54.50;;;;;;;8.66;54.84;103131.13;5242574;28;20912;-51
2022/03/22 03:04:47;;;;;;;90.78;53.55;;;;;;;8.68;54.66;103133.69;5233472;28;21042;-52
2022/03/22 03:07:19;;;;;;;86.97;53.40;;;;;;;8.66;55.04;103136.38;5231186;28;20407;-52
2022/03/22 03:09:53;;;;;;;84.65;52.35;;;;;;;8.46;55.00;103102.38;5222347;28;20404;-49
2022/03/22 03:12:26;;;;;;;87.95;55.28;;;;;;;8.62;54.92;103126.94;5235773;28;20407;-52
2022/03/22 03:14:58;;;;;;;89.07;56.30;;;;;;;8.60;55.04;103134.06;5238741;28;20418;-52
2022/03/22 03:17:31;;;;;;;82.25;53.35;;;;;;;8.59;55.34;103124.47;5240266;28;20420;-51
2022/03/22 03:20:06;;;;;;;86.27;53.77;;;;;;;8.23;55.17;103064.03;5232450;28;20427;-50
2022/03/22 03:22:38;;;;;;;85.15;53.28;;;;;;;8.58;55.35;103128.06;5236919;28;20499;-49
2022/03/22 03:25:13;;;;;;;85.03;52.60;;;;;;;8.55;55.42;103128.22;5234104;28;20424;-52
2022/03/22 03:27:46;;;;;;;84.18;53.60;;;;;;;8.55;55.53;103122.94;5236900;28;20499;-53
2022/03/22 03:30:19;;;;;;;89.05;55.25;;;;;;;8.49;55.50;103112.72;5239195;28;20414;-52
2022/03/22 03:32:52;;;;;;;90.15;55.22;;;;;;;8.44;55.84;103112.97;5238331;28;20896;-49
2022/03/22 03:35:24;;;;;;;85.78;54.13;;;;;;;8.47;55.92;103122.50;5232382;28;20753;-49
2022/03/22 03:37:57;;;;;;;85.23;53.57;;;;;;;8.46;56.00;103129.53;5229647;27;20427;-52
2022/03/22 03:43:18;;;;;;;86.38;54.92;;;;;;;8.40;55.99;103121.13;5237010;28;20857;-51
2022/03/22 03:48:40;;;;;;;88.88;57.13;;;;;;;8.37;56.18;103131.78;5225931;28;20840;-49
2022/03/22 03:51:13;;;;;;;93.28;57.08;;;;;;;8.11;56.40;103091.81;5220958;28;20407;-49
2022/03/22 03:53:45;;;;;;;89.78;56.47;;;;;;;8.37;56.21;103140.50;5241119;28;20435;-49
2022/03/22 03:56:19;;;;;;;100.40;59.22;;;;;;;8.30;56.32;103124.19;5225060;28;20787;-49
2022/03/22 03:58:52;;;;;;;89.15;56.25;;;;;;;8.29;56.63;103130.34;5229953;28;20417;-52
2022/03/22 04:01:25;;;;;;;98.97;59.90;;;;;;;8.32;56.45;103132.84;5228179;28;20416;-54
2022/03/22 04:03:58;;;;;;;91.88;57.28;;;;;;;8.34;56.69;103139.81;5237247;27;20984;-53
2022/03/22 04:06:30;;;;;;;86.72;54.60;;;;;;;8.33;56.49;103138.97;5224361;28;20834;-54
2022/03/22 04:09:03;;;;;;;83.03;52.80;;;;;;;8.22;56.78;103128.97;5235518;28;20886;-52
2022/03/22 04:11:38;;;;;;;95.70;57.88;;;;;;;7.95;56.93;103088.28;5240656;28;20427;-50
2022/03/22 04:14:11;;;;;;;94.88;57.47;;;;;;;8.26;56.94;103138.41;5233782;27;20437;-53
2022/03/22 04:16:44;;;;;;;103.32;60.50;;;;;;;8.24;56.94;103139.44;5237429;28;20415;-54
2022/03/22 04:19:17;;;;;;;99.47;61.15;;;;;;;8.21;57.06;103136.97;5225300;28;20404;-50
2022/03/22 04:21:49;;;;;;;93.20;58.70;;;;;;;8.24;56.92;103139.44;5232362;28;20422;-52
2022/03/22 04:24:22;;;;;;;104.97;61.90;;;;;;;8.24;57.06;103150.81;5234607;28;20717;-52
2022/03/22 04:32:41;;;;;;;100.03;61.33;;;;;;;8.23;57.08;103143.00;5259329;28;20415;-54
2022/03/22 04:32:45;;;;;;;97.15;59.65;;;;;;;8.21;57.42;103145.72;5233392;28;20902;-52
2022/03/22 04:35:20;;;;;;;103.80;63.20;;;;;;;8.21;57.36;103144.88;5235328;28;20481;-49
2022/03/22 04:37:54;;;;;;;105.00;64.38;;;;;;;8.19;57.59;103137.03;5243632;28;20412;-50
2022/03/22 04:40:27;;;;;;;102.55;62.42;;;;;;;8.18;57.70;103145.88;5227795;28;20461;-49
2022/03/22 04:43:01;;;;;;;97.00;61.42;;;;;;;8.21;57.72;103143.09;5228701;28;20501;-52
2022/03/22 04:45:35;;;;;;;91.95;57.80;;;;;;;8.20;57.70;103146.63;5249405;28;20417;-48
2022/03/22 04:48:08;;;;;;;107.75;63.72;;;;;;;8.18;57.59;103143.25;5247630;28;20943;-50
2022/03/22 04:50:41;;;;;;;108.53;62.60;;;;;;;8.18;57.68;103151.13;5234619;28;20434;-51
2022/03/22 04:58:55;;;;;;;108.77;64.73;;;;;;;8.17;58.21;103149.41;5243741;28;20867;-51
2022/03/22 05:01:30;;;;;;;103.68;63.95;;;;;;;7.98;58.06;103131.06;5240504;28;20413;-48
2022/03/22 05:04:03;;;;;;;106.00;64.25;;;;;;;8.17;58.25;103144.16;5241359;28;20909;-49
2022/03/22 05:06:37;;;;;;;98.82;63.08;;;;;;;8.16;58.25;103144.25;5237481;28;20425;-48
2022/03/22 05:09:11;;;;;;;102.68;66.00;;;;;;;8.16;58.28;103152.97;5222712;28;20423;-53
2022/03/22 05:11:44;;;;;;;114.25;65.28;;;;;;;8.14;58.25;103144.31;5216992;28;20821;-54
2022/03/22 05:14:18;;;;;;;106.55;66.53;;;;;;;8.16;58.30;103150.34;5215155;28;20895;-56
2022/03/22 05:16:51;;;;;;;107.68;66.57;;;;;;;8.13;58.38;103145.25;5220946;28;20477;-49
2022/03/22 05:19:23;;;;;;;109.90;67.45;;;;;;;8.13;58.29;103153.13;5235711;28;20419;-53
2022/03/22 05:21:56;;;;;;;111.45;66.30;;;;;;;8.15;58.70;103163.59;5222897;28;20409;-51
2022/03/22 05:24:30;;;;;;;104.03;65.47;;;;;;;8.15;58.72;103164.44;5228883;28;20411;-54
2022/03/22 05:27:03;;;;;;;109.25;66.07;;;;;;;8.16;58.66;103163.50;5225470;28;20423;-52
2022/03/22 05:29:37;;;;;;;111.07;68.45;;;;;;;7.98;58.67;103128.44;5230306;28;20488;-52
2022/03/22 05:32:11;;;;;;;117.55;70.05;;;;;;;8.13;58.74;103168.94;5224985;28;20425;-50
2022/03/22 05:34:44;;;;;;;111.22;68.22;;;;;;;8.14;58.84;103170.63;5223691;28;20890;-50
2022/03/22 05:37:16;;;;;;;111.10;68.60;;;;;;;8.16;58.91;103168.78;5232810;28;20404;-53
2022/03/22 05:39:49;;;;;;;106.50;65.35;;;;;;;8.18;59.14;103169.56;5227541;28;20741;-50
2022/03/22 05:42:22;;;;;;;110.53;67.03;;;;;;;8.19;59.10;103173.88;5231790;28;20415;-54
2022/03/22 05:44:56;;;;;;;111.22;66.05;;;;;;;8.18;59.13;103176.63;5226904;28;20414;-49
2022/03/22 05:47:28;;;;;;;103.30;63.42;;;;;;;8.22;59.17;103176.38;5228208;28;20794;-48
2022/03/22 05:50:01;;;;;;;102.55;65.20;;;;;;;8.22;59.26;103179.00;5229153;28;20790;-50
2022/03/22 05:52:34;;;;;;;102.18;65.32;;;;;;;8.23;59.25;103180.69;5223999;28;20432;-51
2022/03/22 05:55:09;;;;;;;99.60;63.38;;;;;;;8.22;59.16;103179.00;5228364;28;20419;-50
2022/03/22 05:57:47;;;;;;;108.30;66.72;;;;;;;8.16;59.40;103173.19;5229416;28;20415;-50
2022/03/22 06:00:21;;;;;;;112.65;68.65;;;;;;;8.22;59.58;103183.41;5228780;28;20767;-53
2022/03/22 06:02:54;;;;;;;106.72;65.53;;;;;;;8.01;59.47;103140.59;5222854;28;20416;-52
2022/03/22 06:05:28;;;;;;;101.38;64.95;;;;;;;8.28;59.42;103177.84;5216430;28;20479;-50
2022/03/22 06:08:01;;;;;;;104.75;65.55;;;;;;;8.27;59.79;103177.00;5230681;28;20482;-51
2022/03/22 06:10:34;;;;;;;105.15;65.05;;;;;;;8.31;59.70;103181.16;5230583;28;20876;-49
2022/03/22 06:13:07;;;;;;;110.00;67.10;;;;;;;8.30;59.69;103181.25;5242853;28;20412;-52
2022/03/22 06:15:41;;;;;;;99.70;65.05;;;;;;;8.40;59.81;103186.94;5230858;28;20423;-52
2022/03/22 06:18:13;;;;;;;110.50;67.53;;;;;;;8.42;59.73;103195.59;5228792;28;20419;-48
2022/03/22 06:20:46;;;;;;;102.10;66.35;;;;;;;8.43;60.04;103192.06;5227683;28;20411;-50
2022/03/22 06:23:19;;;;;;;101.03;66.03;;;;;;;8.46;60.10;103202.44;5226576;28;20818;-49
2022/03/22 06:25:52;;;;;;;95.85;62.80;;;;;;;8.53;60.03;103203.81;5225835;28;20414;-51
2022/03/22 06:28:25;;;;;;;102.90;64.50;;;;;;;8.60;59.80;103205.19;5223833;28;20807;-53
2022/03/22 06:30:59;;;;;;;95.50;63.42;;;;;;;8.69;60.02;103204.72;5229648;28;20423;-51
2022/03/22 06:33:32;;;;;;;98.60;61.97;;;;;;;8.75;60.03;103206.19;5227574;28;20419;-49
2022/03/22 06:36:08;;;;;;;97.03;59.67;;;;;;;8.85;59.84;103211.81;5228707;28;20929;-52
2022/03/22 06:38:41;;;;;;;94.20;61.25;;;;;;;8.93;60.05;103212.28;5230567;28;20536;-53
2022/03/22 06:41:14;;;;;;;87.65;57.50;;;;;;;9.00;59.77;103213.66;5227959;28;20860;-54
2022/03/22 06:43:46;;;;;;;93.95;60.13;;;;;;;9.08;60.02;103215.91;5228784;28;20415;-53
2022/03/22 06:46:22;;;;;;;87.68;58.97;;;;;;;9.12;59.99;103213.00;5230322;28;20412;-54
2022/03/22 06:48:55;;;;;;;85.47;56.92;;;;;;;9.24;59.85;103212.34;5224705;28;20883;-55
2022/03/22 06:51:53;;;;;;;85.47;57.10;;;;;;;9.37;59.96;103215.16;5230162;28;20415;-53
2022/03/22 06:54:26;;;;;;;77.80;54.17;;;;;;;9.53;60.20;103223.09;5225466;28;20395;-53
2022/03/22 06:56:59;;;;;;;82.23;55.20;;;;;;;9.77;59.77;103220.88;5226588;28;20500;-50
2022/03/22 06:59:31;;;;;;;76.13;52.63;;;;;;;10.23;59.42;103220.91;5227785;28;20423;-52
2022/03/22 07:02:06;;;;;;;74.93;51.15;;;;;;;11.00;58.92;103214.56;5227740;28;20783;-51
2022/03/22 07:04:39;;;;;;;72.45;47.47;;;;;;;11.91;58.15;103222.06;5226673;28;20419;-52
2022/03/22 07:07:11;;;;;;;71.38;45.30;;;;;;;12.70;57.51;103226.50;5228371;28;20430;-54
2022/03/22 07:09:44;;;;;;;66.88;42.67;;;;;;;13.22;56.95;103196.31;5228573;28;20755;-53
2022/03/22 07:12:17;;;;;;;68.75;41.88;;;;;;;14.08;56.13;103224.59;5228092;28;20860;-50
2022/03/22 07:14:50;;;;;;;64.30;40.22;;;;;;;14.39;56.03;103219.63;5229139;28;20416;-51
2022/03/22 07:17:24;;;;;;;62.58;39.75;;;;;;;14.61;55.75;103217.06;5228730;28;20822;-53
2022/03/22 07:19:57;;;;;;;59.70;40.43;;;;;;;14.93;55.27;103219.06;5225130;28;20493;-49
2022/03/22 07:22:29;;;;;;;67.25;40.22;;;;;;;15.27;54.85;103216.34;5228757;28;20420;-53
2022/03/22 07:25:02;;;;;;;60.17;39.65;;;;;;;15.34;54.58;103222.91;5228700;28;20482;-53
2022/03/22 07:27:36;;;;;;;60.35;39.58;;;;;;;15.22;54.57;103230.88;5227430;28;20412;-51
2022/03/22 07:30:11;;;;;;;62.15;40.67;;;;;;;15.24;54.01;103206.81;5204418;28;20929;-50
2022/03/22 07:32:46;;;;;;;54.50;37.38;;;;;;;15.94;53.38;103226.06;5225938;28;20868;-51
2022/03/22 07:35:19;;;;;;;53.30;36.57;;;;;;;16.66;52.45;103227.97;5228726;28;20489;-52
2022/03/22 07:37:52;;;;;;;58.83;37.88;;;;;;;17.08;51.29;103182.56;5227011;28;20407;-49
2022/03/22 07:40:25;;;;;;;56.33;36.88;;;;;;;18.18;50.18;103234.09;5222603;28;20411;-52
2022/03/22 07:42:58;;;;;;;49.28;36.63;;;;;;;18.65;49.60;103210.06;5222653;28;20406;-53
2022/03/22 07:45:30;;;;;;;55.27;35.07;;;;;;;19.25;48.51;103223.94;5223552;28;20519;-49
2022/03/22 07:48:05;;;;;;;51.28;34.00;;;;;;;19.88;47.56;103231.22;5225965;28;20411;-52
2022/03/22 07:53:28;;;;;;;48.83;32.88;;;;;;;21.13;45.86;103233.59;5186209;28;20814;-50
2022/03/22 07:56:01;;;;;;;46.45;30.83;;;;;;;21.62;44.70;103232.94;5221290;28;20416;-48
2022/03/22 07:58:34;;;;;;;44.95;30.67;;;;;;;21.94;44.39;103229.44;5227701;28;20422;-49
2022/03/22 08:01:06;;;;;;;51.00;31.13;;;;;;;22.30;43.69;103223.78;5216305;28;20420;-49
2022/03/22 08:03:40;;;;;;;46.85;29.95;;;;;;;22.84;43.07;103234.75;5216988;28;20407;-51
2022/03/22 08:06:13;;;;;;;42.78;29.77;;;;;;;23.09;42.41;103227.44;5232937;28;20774;-51
2022/03/22 08:08:45;;;;;;;46.70;29.30;;;;;;;23.31;41.76;103236.63;5229126;28;20392;-49
2022/03/22 08:11:18;;;;;;;49.78;29.73;;;;;;;23.55;41.23;103237.50;5231641;28;20704;-52
2022/03/22 08:13:51;;;;;;;41.95;30.35;;;;;;;23.86;40.60;103230.22;5230299;28;20455;-50
2022/03/22 08:16:23;;;;;;;43.10;28.70;;;;;;;24.19;40.15;103232.69;5227219;28;20385;-48
2022/03/22 08:18:57;;;;;;;42.57;29.93;;;;;;;24.43;39.47;103234.31;5226766;28;20406;-49
2022/03/22 08:21:30;;;;;;;45.95;29.33;;;;;;;24.56;39.09;103236.41;5223317;28;20809;-54
2022/03/22 08:24:03;;;;;;;47.30;29.55;;;;;;;24.68;38.76;103224.09;5236938;28;20429;-48
2022/03/22 08:26:36;;;;;;;38.63;27.65;;;;;;;24.98;38.17;103222.22;5232007;28;20507;-51
2022/03/22 08:29:12;;;;;;;42.05;28.38;;;;;;;25.15;37.76;103205.81;5229443;28;20803;-50
2022/03/22 08:31:44;;;;;;;43.83;28.77;;;;;;;25.52;37.52;103226.44;5227578;28;20396;-51
2022/03/22 08:34:19;;;;;;;43.65;28.85;;;;;;;25.71;37.06;103235.81;5226821;28;20416;-51
2022/03/22 08:36:51;;;;;;;47.38;27.67;;;;;;;25.58;37.03;103233.81;5228132;28;20422;-49
2022/03/22 08:39:24;;;;;;;43.37;28.70;;;;;;;25.49;36.90;103248.47;5224461;28;20448;-53
2022/03/22 08:41:57;;;;;;;41.90;27.92;;;;;;;25.48;36.93;103249.50;5227158;28;20755;-47
2022/03/22 08:44:29;;;;;;;47.08;28.33;;;;;;;25.48;36.64;103241.38;5227655;28;20419;-52
2022/03/22 08:47:02;;;;;;;39.45;27.35;;;;;;;25.41;36.79;103248.59;5211311;28;20775;-52
2022/03/22 08:49:36;;;;;;;42.83;28.67;;;;;;;25.15;37.04;103247.25;5211673;28;20424;-54
2022/03/22 08:52:10;;;;;;;44.15;27.67;;;;;;;25.07;37.08;103244.59;5209226;28;20421;-51
2022/03/22 08:54:42;;;;;;;43.73;27.27;;;;;;;24.92;37.12;103243.78;5221172;28;20499;-52
2022/03/22 08:57:15;;;;;;;37.78;27.17;;;;;;;24.80;37.36;103246.94;5220148;28;20499;-47
2022/03/22 08:59:48;;;;;;;45.07;28.37;;;;;;;24.63;37.37;103253.56;5227336;28;20486;-51
2022/03/22 09:02:20;;;;;;;43.25;30.08;;;;;;;24.35;37.60;103250.59;5226440;28;20417;-51
2022/03/22 09:07:45;;;;;;;38.00;25.33;;;;;;;23.45;38.09;103248.53;5221512;28;20408;-52
2022/03/22 09:10:20;;;;;;;42.45;25.83;;;;;;;23.37;38.24;103252.09;5218520;28;20764;-49
2022/03/22 09:12:54;;;;;;;38.70;26.27;;;;;;;23.36;38.41;103250.41;5226091;28;20399;-49
2022/03/22 09:15:30;;;;;;;42.08;26.50;;;;;;;23.21;38.50;103246.78;5202301;28;20417;-48
2022/03/22 09:18:03;;;;;;;39.22;25.77;;;;;;;23.08;38.55;103260.00;5217751;28;20419;-47
2022/03/22 09:20:37;;;;;;;38.92;26.17;;;;;;;22.75;38.88;103251.97;5223348;28;20415;-48
2022/03/22 09:23:11;;;;;;;38.58;25.08;;;;;;;22.47;39.08;103244.25;5226155;28;20412;-50
2022/03/22 09:25:46;;;;;;;42.17;24.97;;;;;;;22.45;38.97;103256.22;5210209;28;20516;-48
2022/03/22 09:28:19;;;;;;;36.78;24.23;;;;;;;22.30;39.10;103250.69;5205008;28;20395;-50
2022/03/22 09:30:51;;;;;;;39.00;24.77;;;;;;;22.09;39.34;103245.78;5224169;28;20431;-50
2022/03/22 09:33:24;;;;;;;33.40;23.50;;;;;;;21.92;39.34;103249.44;5222969;28;20408;-50
2022/03/22 09:35:58;;;;;;;39.40;25.23;;;;;;;21.81;39.40;103253.31;5223332;28;20491;-49
2022/03/22 09:38:31;;;;;;;38.83;26.20;;;;;;;21.73;39.45;103245.22;5222289;28;20474;-51
2022/03/22 09:41:04;;;;;;;40.03;25.48;;;;;;;21.54;39.53;103263.34;5226151;28;20918;-48
2022/03/22 09:43:38;;;;;;;44.87;27.53;;;;;;;21.04;39.71;103223.81;5225860;28;20450;-51
2022/03/22 09:46:11;;;;;;;43.65;26.48;;;;;;;21.06;39.83;103251.38;5222695;28;20425;-49
2022/03/22 09:48:47;;;;;;;39.92;25.88;;;;;;;20.98;39.82;103256.69;5221252;28;20413;-47
2022/03/22 09:54:13;;;;;;;35.17;25.02;;;;;;;20.61;39.70;103212.16;5219556;28;20911;-50
2022/03/22 09:56:48;;;;;;;44.95;26.15;;;;;;;20.63;39.51;103247.75;5218866;28;20428;-52
2022/03/22 09:59:21;;;;;;;45.10;27.02;;;;;;;20.46;39.49;103253.97;5229794;28;20412;-50
2022/03/22 10:01:54;;;;;;;41.83;25.88;;;;;;;20.40;39.19;103238.50;5222180;28;20434;-51
2022/03/22 10:04:38;;;;;;;51.45;27.75;;;;;;;20.30;39.17;103240.44;5225563;28;20412;-48
2022/03/22 10:07:21;;;;;;;38.22;25.55;;;;;;;20.19;39.10;103234.31;5226279;28;20427;-51
2022/03/22 10:09:55;;;;;;;46.13;25.25;;;;;;;20.26;38.93;103224.66;5227727;28;20442;-48
2022/03/22 10:12:29;;;;;;;44.90;25.80;;;;;;;20.33;38.49;103256.22;5229371;28;20915;-50
2022/03/22 10:15:09;;;;;;;40.50;25.17;;;;;;;20.33;38.47;103234.75;5229819;28;21175;-51
2022/03/22 10:17:44;;;;;;;46.10;25.88;;;;;;;20.36;38.23;103224.56;5229513;28;20439;-51
2022/03/22 10:20:24;;;;;;;39.13;24.98;;;;;;;20.30;38.08;103240.44;5231285;28;20412;-49
2022/03/22 10:23:00;;;;;;;39.67;25.02;;;;;;;20.40;37.82;103230.44;5222853;28;20467;-48
2022/03/22 10:25:38;;;;;;;39.80;24.70;;;;;;;20.48;37.79;103227.81;5227086;28;21164;-48
2022/03/22 10:28:11;;;;;;;42.72;24.45;;;;;;;20.50;37.55;103225.81;5231036;28;20473;-49
2022/03/22 10:30:43;;;;;;;36.22;23.25;;;;;;;20.49;37.37;103229.50;5229674;28;23081;-48
2022/03/22 10:33:17;;;;;;;41.10;24.85;;;;;;;20.44;37.32;103231.81;5229821;28;20394;-52
2022/03/22 10:35:50;;;;;;;38.47;24.57;;;;;;;20.43;37.29;103232.81;5227956;28;20412;-48
2022/03/22 10:38:23;;;;;;;36.97;25.23;;;;;;;20.50;37.10;103241.91;5226157;28;20706;-48
2022/03/22 10:40:56;;;;;;;34.88;23.90;;;;;;;20.52;37.04;103229.22;5224937;28;20486;-49
2022/03/22 10:43:31;;;;;;;38.83;24.65;;;;;;;20.54;36.97;103229.06;5226324;28;20406;-50
2022/03/22 10:46:05;;;;;;;38.10;25.65;;;;;;;20.63;36.78;103226.28;5227305;28;20801;-49
2022/03/22 10:48:40;;;;;;;38.20;24.42;;;;;;;20.62;36.68;103219.22;5227042;28;20406;-53
2022/03/22 10:51:15;;;;;;;35.73;23.70;;;;;;;20.65;36.59;103224.25;5225685;28;20443;-53
2022/03/22 10:53:50;;;;;;;34.20;23.60;;;;;;;20.73;36.39;103237.75;5229966;28;20736;-52
2022/03/22 10:56:23;;;;;;;40.63;23.98;;;;;;;20.81;36.34;103223.53;5227650;28;20481;-53
2022/03/22 10:58:57;;;;;;;44.00;23.83;;;;;;;20.84;36.25;103230.41;5227409;28;20446;-53
2022/03/22 11:01:36;;;;;;;41.72;25.48;;;;;;;20.66;36.30;103206.34;5235568;28;20400;-51
2022/03/22 11:04:09;;;;;;;43.07;26.70;;;;;;;20.74;36.34;103227.84;5226203;28;20901;-52
2022/03/22 11:06:43;;;;;;;46.15;25.98;;;;;;;20.77;36.50;103232.06;5239737;28;20521;-52
2022/03/22 11:09:20;;;;;;;39.67;24.83;;;;;;;20.78;36.54;103226.53;5241452;28;20996;-53
2022/03/22 11:11:53;;;;;;;44.08;27.30;;;;;;;20.89;36.49;103225.41;5243401;28;20452;-50
2022/03/22 11:14:27;;;;;;;44.20;25.83;;;;;;;21.00;36.40;103227.84;5240180;28;20892;-53
2022/03/22 11:17:00;;;;;;;42.97;26.60;;;;;;;21.18;36.31;103220.53;5240823;28;20430;-53
2022/03/22 11:19:33;;;;;;;38.95;25.30;;;;;;;21.26;36.12;103216.16;5227804;28;20833;-50
2022/03/22 11:22:06;;;;;;;39.13;22.20;;;;;;;21.25;36.36;103209.13;5232397;28;20443;-50
2022/03/22 11:24:40;;;;;;;38.00;25.13;;;;;;;21.27;36.29;103212.47;5241469;28;20805;-53
2022/03/22 11:27:13;;;;;;;47.28;26.15;;;;;;;21.25;36.17;103223.41;5238864;28;20540;-54
2022/03/22 11:29:46;;;;;;;38.60;24.75;;;;;;;21.22;36.28;103209.44;5239237;28;20403;-52
2022/03/22 11:35:14;;;;;;;41.00;26.00;;;;;;;21.23;36.30;103219.19;5242292;28;25101;-50
2022/03/22 11:38:00;;;;;;;40.13;26.25;;;;;;;21.08;36.22;103197.47;5237729;28;20409;-51
2022/03/22 11:43:23;;;;;;;39.65;25.52;;;;;;;21.21;36.72;103223.88;5248413;28;20413;-53
2022/03/22 11:45:56;;;;;;;37.15;23.90;;;;;;;21.26;36.60;103221.53;5239359;28;20427;-51
2022/03/22 11:48:32;;;;;;;40.58;24.88;;;;;;;21.27;36.55;103221.38;5239861;28;20422;-49
2022/03/22 11:51:06;;;;;;;43.35;25.67;;;;;;;21.29;36.49;103218.53;5235349;28;20584;-49
2022/03/22 11:53:44;;;;;;;41.28;24.98;;;;;;;21.30;36.38;103212.16;5237274;28;20494;-51
2022/03/22 11:56:27;;;;;;;36.50;24.58;;;;;;;21.55;36.20;103210.38;5231048;28;20443;-52
2022/03/22 11:59:03;;;;;;;40.55;24.73;;;;;;;21.57;36.20;103219.97;5229780;28;20910;-52
2022/03/22 12:01:37;;;;;;;37.92;24.30;;;;;;;21.42;36.43;103227.84;5233043;28;20467;-52
2022/03/22 12:04:16;;;;;;;38.20;24.63;;;;;;;21.35;36.63;103210.69;5230241;28;20516;-51
2022/03/22 12:06:49;;;;;;;38.65;25.25;;;;;;;21.17;36.49;103191.09;5245501;28;20727;-53
2022/03/22 12:09:26;;;;;;;41.63;25.47;;;;;;;21.32;36.50;103204.78;5234639;28;21103;-52
2022/03/22 12:12:01;;;;;;;37.25;24.63;;;;;;;21.29;36.63;103205.94;5229346;28;20477;-51
2022/03/22 12:14:35;;;;;;;39.00;26.20;;;;;;;21.31;36.72;103203.94;5244553;28;20442;-53
2022/03/22 12:17:07;;;;;;;33.78;23.98;;;;;;;21.38;36.64;103198.78;5244852;28;20823;-49